Time;durP1;ratioP1;P1;durP2;ratioP2;P2;SDS_P1;SDS_P2;PMS_P1;PMS_P2;Temp;Humidity;BMP_temperature;BMP_pressure;BME280_temperature;BME280_humidity;BME280_pressure;Samples;Min_cycle;Max_cycle;Signal;HPM_P1;HPM_P2
2023/08/02 00:00:43;;;;;;;7.20;6.00;;;;;;;20.81;68.87;98602.72;106871;1264;71742;-39
2023/08/02 00:03:10;;;;;;;6.30;4.80;;;;;;;20.78;68.90;98601.25;106884;1264;61703;-39
2023/08/02 00:05:38;;;;;;;6.90;5.10;;;;;;;20.79;69.02;98599.48;106883;1263;60209;-39
2023/08/02 00:08:06;;;;;;;9.40;5.60;;;;;;;20.83;68.96;98597.63;106852;1263;71861;-39
2023/08/02 00:10:36;;;;;;;5.80;5.20;;;;;;;20.84;68.83;98596.71;106869;1263;68072;-39
2023/08/02 00:13:04;;;;;;;7.70;5.30;;;;;;;20.82;69.04;98596.08;106862;1263;72716;-39
2023/08/02 00:15:32;;;;;;;6.40;5.60;;;;;;;20.80;69.09;98595.61;106860;1264;60161;-39
2023/08/02 00:18:00;;;;;;;7.70;5.60;;;;;;;20.77;69.00;98594.29;106914;1266;59561;-39
2023/08/02 00:20:28;;;;;;;5.40;4.50;;;;;;;20.76;69.07;98595.58;106896;1264;73068;-39
2023/08/02 00:22:55;;;;;;;6.90;5.50;;;;;;;20.77;68.95;98595.77;106840;1266;66321;-39
2023/08/02 00:25:26;;;;;;;6.10;5.30;;;;;;;20.76;69.08;98594.22;106856;1264;72789;-39
2023/08/02 00:27:55;;;;;;;6.70;5.30;;;;;;;20.73;68.94;98594.88;106888;1261;60094;-40
2023/08/02 00:30:30;;;;;;;6.00;5.40;;;;;;;20.70;68.95;98594.54;106908;1263;60554;-39
2023/08/02 00:32:58;;;;;;;6.80;6.00;;;;;;;20.65;69.12;98596.84;106795;1263;73046;-38
2023/08/02 00:35:26;;;;;;;6.90;5.20;;;;;;;20.64;69.15;98596.84;106733;1267;67807;-38
2023/08/02 00:37:53;;;;;;;6.00;5.30;;;;;;;20.67;69.25;98599.35;106806;1266;72696;-38
2023/08/02 00:40:24;;;;;;;7.20;5.70;;;;;;;20.67;69.01;98598.95;106775;1263;60082;-38
2023/08/02 00:42:52;;;;;;;7.10;5.70;;;;;;;20.66;68.89;98597.59;106801;1262;59481;-38
2023/08/02 00:45:19;;;;;;;7.80;5.60;;;;;;;20.63;69.09;98599.34;106790;1261;71488;-38
2023/08/02 00:47:47;;;;;;;6.70;5.30;;;;;;;20.60;69.17;98600.54;106853;1263;65488;-38
2023/08/02 00:50:15;;;;;;;6.30;5.50;;;;;;;20.59;69.36;98597.41;106799;1263;72726;-38
2023/08/02 00:52:42;;;;;;;6.50;5.40;;;;;;;20.61;69.37;98594.98;106846;1264;59840;-39
2023/08/02 00:55:10;;;;;;;6.70;5.60;;;;;;;20.61;69.42;98596.42;106837;1264;59663;-39
2023/08/02 00:57:37;;;;;;;6.10;5.50;;;;;;;20.59;69.49;98593.64;106828;1266;72191;-38
2023/08/02 01:00:06;;;;;;;7.60;6.00;;;;;;;20.57;69.48;98592.02;106867;1266;67617;-39
2023/08/02 01:02:34;;;;;;;8.10;5.90;;;;;;;20.54;69.74;98593.50;106775;1264;72651;-38
2023/08/02 01:05:03;;;;;;;7.10;5.20;;;;;;;20.55;69.73;98590.02;106817;1261;61738;-38
2023/08/02 01:07:47;;;;;;;6.30;5.60;;;;;;;20.56;69.87;98594.52;106831;1261;59669;-38
2023/08/02 01:10:24;;;;;;;5.80;5.20;;;;;;;20.54;69.80;98591.08;106806;1262;71751;-38
2023/08/02 01:12:54;;;;;;;7.10;5.90;;;;;;;20.49;69.98;98588.46;106778;1263;67742;-39
2023/08/02 01:15:22;;;;;;;7.30;5.90;;;;;;;20.45;70.16;98584.54;106895;1264;71399;-39
2023/08/02 01:17:50;;;;;;;6.50;5.90;;;;;;;20.40;70.30;98581.30;106837;1262;60284;-39
2023/08/02 01:20:18;;;;;;;6.50;5.30;;;;;;;20.41;70.36;98580.34;106901;1261;60050;-39
2023/08/02 01:22:46;;;;;;;7.90;5.70;;;;;;;20.42;70.33;98581.70;106891;1263;71852;-39
2023/08/02 01:25:14;;;;;;;7.50;6.00;;;;;;;20.41;70.28;98581.29;106877;1266;67631;-39
2023/08/02 01:27:52;;;;;;;6.00;5.40;;;;;;;20.36;70.44;98580.00;106863;1263;73756;-39
2023/08/02 01:30:20;;;;;;;6.30;5.70;;;;;;;20.30;70.61;98574.63;106846;1266;59652;-39
2023/08/02 01:32:48;;;;;;;6.80;6.00;;;;;;;20.24;71.07;98577.00;106857;1263;60115;-39
2023/08/02 01:35:16;;;;;;;5.80;5.20;;;;;;;20.23;71.09;98578.85;106900;1263;70861;-39
2023/08/02 01:37:44;;;;;;;6.30;5.70;;;;;;;20.24;71.06;98579.99;106874;1267;67080;-39
2023/08/02 01:40:13;;;;;;;6.70;6.00;;;;;;;20.23;71.26;98578.15;106871;1264;71467;-39
2023/08/02 01:42:41;;;;;;;7.80;6.10;;;;;;;20.18;71.33;98576.89;106991;1264;59598;-39
2023/08/02 01:45:10;;;;;;;7.30;6.60;;;;;;;20.17;71.42;98577.48;107009;1262;60036;-38
2023/08/02 01:47:38;;;;;;;14.40;6.00;;;;;;;20.14;71.53;98575.45;107020;1266;71817;-39
2023/08/02 01:50:06;;;;;;;6.80;5.70;;;;;;;20.13;71.38;98580.33;106802;1262;67922;-39
2023/08/02 01:52:34;;;;;;;6.80;5.20;;;;;;;20.14;71.33;98579.45;106875;1264;71420;-39
2023/08/02 01:55:02;;;;;;;9.80;6.20;;;;;;;20.16;71.31;98582.14;106971;1266;60286;-40
2023/08/02 01:57:29;;;;;;;6.70;6.00;;;;;;;20.15;71.39;98586.65;106900;1262;60444;-39
2023/08/02 01:59:57;;;;;;;8.20;6.40;;;;;;;20.12;71.52;98586.38;106991;1264;73888;-40
2023/08/02 02:02:25;;;;;;;6.70;6.00;;;;;;;20.09;71.62;98590.56;106833;1263;66666;-39
2023/08/02 02:04:53;;;;;;;6.40;5.60;;;;;;;20.07;71.46;98586.81;107447;1260;71414;-39
2023/08/02 02:07:20;;;;;;;8.80;5.80;;;;;;;20.10;71.48;98590.59;107353;1255;60422;-39
2023/08/02 02:09:48;;;;;;;6.60;5.80;;;;;;;20.11;71.49;98588.42;107334;1257;60517;-40
2023/08/02 02:12:15;;;;;;;11.80;6.00;;;;;;;20.11;71.51;98593.15;107454;1258;73858;-40
2023/08/02 02:14:43;;;;;;;7.60;5.70;;;;;;;20.08;71.62;98589.71;107467;1254;66287;-40
2023/08/02 02:17:10;;;;;;;8.50;6.20;;;;;;;20.05;71.65;98589.96;107595;1254;72707;-39
2023/08/02 02:19:39;;;;;;;8.60;5.70;;;;;;;20.04;71.57;98587.56;107459;1254;60517;-39
2023/08/02 02:22:06;;;;;;;6.30;5.70;;;;;;;20.05;71.76;98589.48;107612;1255;60485;-39
2023/08/02 02:24:34;;;;;;;6.60;6.00;;;;;;;20.06;71.77;98589.05;107551;1257;73911;-40
2023/08/02 02:27:02;;;;;;;7.10;6.10;;;;;;;20.04;71.90;98587.00;107572;1257;67705;-40
2023/08/02 02:29:30;;;;;;;7.00;6.30;;;;;;;20.02;71.94;98582.69;107486;1254;72663;-40
2023/08/02 02:31:57;;;;;;;7.20;5.90;;;;;;;20.00;72.04;98582.02;107516;1257;60565;-40
2023/08/02 02:34:25;;;;;;;6.30;5.70;;;;;;;20.01;71.93;98583.41;107603;1253;60208;-40
2023/08/02 02:36:53;;;;;;;6.70;5.80;;;;;;;20.06;71.87;98579.55;107458;1254;72599;-39
2023/08/02 02:39:24;;;;;;;6.60;5.90;;;;;;;20.07;71.81;98579.36;107499;1255;66749;-40
2023/08/02 02:41:52;;;;;;;7.00;6.30;;;;;;;20.08;71.95;98583.52;107616;1255;74140;-40
2023/08/02 02:44:19;;;;;;;7.00;6.30;;;;;;;20.07;71.96;98581.89;107529;1254;60310;-40
2023/08/02 02:46:47;;;;;;;5.80;5.30;;;;;;;20.05;72.20;98584.77;107446;1257;60319;-40
2023/08/02 02:49:14;;;;;;;8.30;6.00;;;;;;;20.08;72.06;98584.13;107543;1254;72537;-40
2023/08/02 02:51:42;;;;;;;9.50;6.40;;;;;;;20.13;72.06;98588.04;107497;1254;67095;-39
2023/08/02 02:54:10;;;;;;;7.20;6.50;;;;;;;20.15;72.01;98586.26;107459;1255;72697;-40
2023/08/02 02:56:37;;;;;;;7.30;6.60;;;;;;;20.16;71.86;98586.64;107523;1254;60547;-40
2023/08/02 02:59:05;;;;;;;9.40;6.90;;;;;;;20.16;71.99;98589.29;107531;1253;60372;-40
2023/08/02 03:01:32;;;;;;;8.60;6.40;;;;;;;20.12;72.00;98590.36;107481;1257;72540;-40
2023/08/02 03:04:00;;;;;;;6.60;6.10;;;;;;;20.12;71.98;98591.46;107488;1257;67569;-40
2023/08/02 03:06:27;;;;;;;6.60;6.00;;;;;;;20.16;72.11;98595.66;107498;1257;70504;-40
2023/08/02 03:08:55;;;;;;;7.30;6.50;;;;;;;20.18;72.14;98592.23;107477;1257;60550;-40
2023/08/02 03:11:23;;;;;;;7.40;6.50;;;;;;;20.18;72.16;98589.23;107513;1254;60322;-40
2023/08/02 03:13:50;;;;;;;9.40;7.10;;;;;;;20.17;72.37;98591.30;107483;1257;72619;-40
2023/08/02 03:16:18;;;;;;;7.20;6.50;;;;;;;20.15;72.42;98588.30;107507;1257;66283;-40
2023/08/02 03:18:48;;;;;;;6.30;5.60;;;;;;;20.16;72.44;98587.80;107492;1257;73203;-39
2023/08/02 03:21:15;;;;;;;;;;;;;;;20.21;72.46;98583.69;107570;1254;60378;-40
2023/08/02 03:23:43;;;;;;;9.10;7.00;;;;;;;20.20;72.72;98586.55;107545;1257;59840;-40
2023/08/02 03:26:10;;;;;;;8.20;7.40;;;;;;;20.19;73.02;98588.89;107386;1254;74145;-40
2023/08/02 03:28:38;;;;;;;7.90;7.00;;;;;;;20.23;73.08;98590.33;107517;1253;66615;-40
2023/08/02 03:31:06;;;;;;;8.00;6.40;;;;;;;20.29;73.05;98588.64;107483;1255;72481;-40
2023/08/02 03:33:34;;;;;;;9.70;6.30;;;;;;;20.37;73.01;98590.22;107339;1254;60350;-40
2023/08/02 03:36:01;;;;;;;7.40;6.70;;;;;;;20.43;73.12;98590.02;107480;1254;59718;-40
2023/08/02 03:38:29;;;;;;;7.10;6.40;;;;;;;20.46;72.82;98585.50;107569;1257;72884;-40
2023/08/02 03:40:57;;;;;;;9.10;6.90;;;;;;;20.48;72.97;98585.61;107558;1255;67612;-40
2023/08/02 03:43:25;;;;;;;7.20;6.50;;;;;;;20.51;73.06;98581.27;107541;1254;72756;-40
2023/08/02 03:45:52;;;;;;;6.80;6.10;;;;;;;20.58;72.87;98579.83;107424;1257;61668;-40
2023/08/02 03:48:20;;;;;;;7.70;6.80;;;;;;;20.67;73.02;98581.25;107554;1254;60508;-40
2023/08/02 03:50:48;;;;;;;9.50;6.80;;;;;;;20.73;73.01;98582.94;107551;1254;73858;-40
2023/08/02 03:53:15;;;;;;;9.50;6.90;;;;;;;20.77;72.97;98580.10;107522;1255;67749;-40
2023/08/02 03:55:43;;;;;;;7.10;6.40;;;;;;;20.80;73.02;98578.11;107499;1256;71422;-40
2023/08/02 03:58:10;;;;;;;7.30;6.60;;;;;;;20.87;73.13;98576.84;107549;1257;61845;-40
2023/08/02 04:00:38;;;;;;;8.00;7.00;;;;;;;20.97;73.18;98575.81;107523;1254;60453;-40
2023/08/02 04:03:05;;;;;;;7.00;6.30;;;;;;;21.04;73.22;98572.00;107553;1253;73196;-40
2023/08/02 04:05:33;;;;;;;8.20;7.30;;;;;;;21.09;73.23;98571.11;107511;1254;67733;-40
2023/08/02 04:08:02;;;;;;;8.30;6.70;;;;;;;21.13;73.35;98567.02;107516;1254;73146;-40
2023/08/02 04:10:29;;;;;;;6.80;5.90;;;;;;;21.20;73.41;98566.96;107562;1254;61656;-40
2023/08/02 04:12:57;;;;;;;7.10;6.40;;;;;;;21.29;73.35;98561.73;107544;1254;60605;-40
2023/08/02 04:15:41;;;;;;;7.70;7.00;;;;;;;21.38;73.15;98563.61;107532;1253;73007;-40
2023/08/02 04:18:09;;;;;;;7.90;7.00;;;;;;;21.46;73.25;98561.52;107373;1257;67886;-40
2023/08/02 04:20:40;;;;;;;8.70;6.80;;;;;;;21.52;73.18;98564.64;107336;1254;72682;-39
2023/08/02 04:23:08;;;;;;;7.40;6.00;;;;;;;21.63;72.85;98558.96;107435;1254;61696;-39
2023/08/02 04:25:35;;;;;;;8.00;6.80;;;;;;;21.75;72.74;98556.59;107496;1253;61016;-39
2023/08/02 04:28:03;;;;;;;7.80;6.80;;;;;;;21.84;72.48;98554.33;107437;1254;73853;-39
2023/08/02 04:30:31;;;;;;;7.60;6.40;;;;;;;21.92;72.34;98552.52;107519;1254;66736;-39
2023/08/02 04:32:59;;;;;;;6.60;6.00;;;;;;;21.99;72.09;98551.16;107489;1253;72661;-39
2023/08/02 04:35:28;;;;;;;6.80;6.00;;;;;;;22.10;71.60;98551.98;107467;1254;61831;-39
2023/08/02 04:37:56;;;;;;;8.90;6.10;;;;;;;22.21;71.39;98549.59;107462;1254;60588;-39
2023/08/02 04:40:24;;;;;;;7.00;6.30;;;;;;;22.26;71.19;98549.05;107446;1255;73838;-39
2023/08/02 04:42:53;;;;;;;7.70;6.20;;;;;;;22.33;70.81;98548.50;107421;1253;67591;-40
2023/08/02 04:45:21;;;;;;;;;;;;;;;22.41;70.87;98546.58;107504;1254;72701;-40
2023/08/02 04:47:49;;;;;;;6.60;5.90;;;;;;;22.44;70.91;98543.31;107474;1254;60417;-39
2023/08/02 04:50:16;;;;;;;5.50;5.00;;;;;;;22.51;70.89;98539.48;107527;1253;61080;-39
2023/08/02 04:52:44;;;;;;;7.90;5.90;;;;;;;22.65;70.55;98537.85;107467;1253;73878;-39
2023/08/02 04:55:11;;;;;;;6.80;5.90;;;;;;;22.74;70.36;98535.73;107513;1254;67898;-40
2023/08/02 04:57:39;;;;;;;7.00;6.30;;;;;;;22.82;70.39;98532.68;107501;1254;72721;-40
2023/08/02 05:00:07;;;;;;;6.60;5.90;;;;;;;22.91;69.99;98537.85;107470;1257;60300;-40
2023/08/02 05:02:36;;;;;;;6.90;5.70;;;;;;;22.96;69.80;98537.59;107538;1254;60279;-40
2023/08/02 05:05:05;;;;;;;5.50;5.00;;;;;;;23.06;69.58;98534.95;107519;1254;73864;-40
2023/08/02 05:07:33;;;;;;;5.90;5.30;;;;;;;23.16;68.89;98537.69;107550;1254;67595;-40
2023/08/02 05:10:05;;;;;;;6.30;5.70;;;;;;;23.21;69.13;98537.15;107577;1254;72743;-40
2023/08/02 05:12:41;;;;;;;6.30;5.70;;;;;;;23.27;69.12;98531.32;107644;1254;60360;-40
2023/08/02 05:15:15;;;;;;;6.40;5.80;;;;;;;23.30;68.97;98526.19;107515;1253;60503;-42
2023/08/02 05:17:50;;;;;;;6.10;5.40;;;;;;;23.36;68.91;98521.73;107615;1254;73884;-42
2023/08/02 05:20:36;;;;;;;9.10;4.90;;;;;;;23.48;69.04;98523.10;107527;1260;67052;-40
2023/08/02 05:23:21;;;;;;;6.10;5.40;;;;;;;23.63;68.25;98520.88;107676;1256;72665;-41
2023/08/02 05:25:49;;;;;;;6.80;5.60;;;;;;;23.72;68.54;98524.41;107631;1254;60418;-42
2023/08/02 05:28:18;;;;;;;11.60;5.80;;;;;;;23.82;68.05;98528.14;107492;1254;60500;-41
2023/08/02 05:30:47;;;;;;;7.50;5.30;;;;;;;23.89;67.58;98522.60;107355;1254;75002;-39
2023/08/02 05:33:15;;;;;;;6.90;5.60;;;;;;;23.92;66.99;98520.83;107333;1254;67281;-40
2023/08/02 05:35:42;;;;;;;5.70;5.20;;;;;;;23.95;66.59;98520.23;107420;1253;73116;-39
2023/08/02 05:38:10;;;;;;;5.80;5.20;;;;;;;23.98;66.51;98522.37;107403;1254;59704;-40
2023/08/02 05:40:38;;;;;;;5.90;5.30;;;;;;;24.00;66.76;98522.61;107392;1253;60142;-40
2023/08/02 05:43:06;;;;;;;5.50;5.00;;;;;;;24.00;66.84;98526.38;107447;1254;73841;-40
2023/08/02 05:45:33;;;;;;;6.30;5.70;;;;;;;24.00;66.56;98527.80;107426;1254;66968;-40
2023/08/02 05:48:01;;;;;;;7.30;5.40;;;;;;;23.96;66.42;98526.55;107472;1254;72745;-40
2023/08/02 05:50:29;;;;;;;6.70;5.00;;;;;;;23.94;66.16;98528.97;107437;1254;61769;-39
2023/08/02 05:52:57;;;;;;;6.20;5.60;;;;;;;23.97;66.33;98530.34;107479;1254;60431;-39
2023/08/02 05:55:24;;;;;;;9.30;5.70;;;;;;;23.99;66.39;98530.64;107493;1254;73831;-39
2023/08/02 05:57:52;;;;;;;6.00;5.50;;;;;;;23.98;66.55;98528.45;107485;1254;66425;-39
2023/08/02 06:00:19;;;;;;;5.80;5.30;;;;;;;24.01;66.94;98524.74;107483;1254;72692;-40
2023/08/02 06:02:47;;;;;;;6.60;6.00;;;;;;;24.04;66.08;98522.95;107466;1254;60405;-40
2023/08/02 06:05:14;;;;;;;6.20;5.20;;;;;;;24.07;66.41;98522.80;107589;1257;60438;-39
2023/08/02 06:07:42;;;;;;;6.60;5.30;;;;;;;24.14;66.30;98516.98;107614;1255;73929;-40
2023/08/02 06:10:10;;;;;;;5.50;5.00;;;;;;;24.27;64.81;98517.27;107500;1254;67640;-40
2023/08/02 06:12:37;;;;;;;6.10;5.50;;;;;;;24.35;64.03;98518.55;107592;1254;72705;-40
2023/08/02 06:15:06;;;;;;;6.30;5.70;;;;;;;24.40;63.86;98518.49;107432;1254;60441;-40
2023/08/02 06:17:33;;;;;;;8.10;5.80;;;;;;;24.44;63.90;98513.68;109269;1254;60015;-41
2023/08/02 06:20:01;;;;;;;6.60;5.80;;;;;;;24.50;64.28;98514.73;109280;1252;71811;-41
2023/08/02 06:22:29;;;;;;;5.70;5.20;;;;;;;24.61;64.53;98513.38;109268;1254;67618;-41
2023/08/02 06:24:56;;;;;;;5.30;4.80;;;;;;;24.75;63.97;98519.13;109241;1254;73114;-41
2023/08/02 06:27:24;;;;;;;7.50;5.50;;;;;;;24.87;64.02;98513.88;109245;1253;58820;-40
2023/08/02 06:29:52;;;;;;;6.40;5.50;;;;;;;24.97;63.32;98513.42;108072;1254;60437;-40
2023/08/02 06:32:20;;;;;;;5.60;5.10;;;;;;;25.05;63.03;98510.35;107505;1254;73933;-40
2023/08/02 06:34:47;;;;;;;6.40;5.80;;;;;;;25.15;63.02;98508.95;107511;1254;67928;-40
2023/08/02 06:37:15;;;;;;;6.70;5.20;;;;;;;25.25;62.57;98508.56;107452;1253;73844;-40
2023/08/02 06:39:42;;;;;;;6.00;5.50;;;;;;;25.30;61.61;98508.45;107452;1254;60300;-40
2023/08/02 06:42:10;;;;;;;5.80;5.20;;;;;;;25.34;60.93;98511.00;107538;1253;60376;-40
2023/08/02 06:44:37;;;;;;;5.90;5.40;;;;;;;25.37;61.06;98506.48;107475;1254;73851;-40
2023/08/02 06:47:05;;;;;;;5.10;4.60;;;;;;;25.42;61.34;98505.31;107491;1254;67898;-40
2023/08/02 06:49:34;;;;;;;4.90;4.40;;;;;;;25.55;60.52;98502.80;107488;1253;71396;-40
2023/08/02 06:52:02;;;;;;;5.50;5.00;;;;;;;25.71;60.20;98502.04;107546;1254;60527;-40
2023/08/02 06:54:30;;;;;;;5.70;5.10;;;;;;;25.80;59.28;98502.79;107450;1253;60358;-40
2023/08/02 06:56:58;;;;;;;5.70;5.20;;;;;;;25.85;59.30;98504.73;107521;1254;72570;-40
2023/08/02 06:59:25;;;;;;;5.50;5.00;;;;;;;25.87;58.68;98502.02;107520;1253;68333;-40
2023/08/02 07:01:53;;;;;;;7.20;5.00;;;;;;;25.87;58.28;98505.21;107483;1259;72739;-40
2023/08/02 07:04:21;;;;;;;5.90;5.40;;;;;;;25.86;58.51;98508.33;107498;1254;60267;-40
2023/08/02 07:06:49;;;;;;;5.60;5.10;;;;;;;25.83;59.07;98505.92;107494;1253;60325;-39
2023/08/02 07:09:16;;;;;;;7.90;5.50;;;;;;;25.79;59.17;98503.59;107453;1254;72622;-40
2023/08/02 07:11:44;;;;;;;6.00;5.40;;;;;;;25.76;59.45;98497.98;107446;1254;67984;-40
2023/08/02 07:14:11;;;;;;;5.80;5.20;;;;;;;25.73;59.01;98499.30;107525;1257;72651;-40
2023/08/02 07:16:39;;;;;;;5.70;5.20;;;;;;;25.71;59.81;98501.14;107446;1254;60174;-40
2023/08/02 07:19:07;;;;;;;6.20;4.90;;;;;;;25.75;60.47;98499.54;107475;1253;60396;-40
2023/08/02 07:21:34;;;;;;;5.10;4.70;;;;;;;25.86;59.87;98499.73;107481;1253;73823;-40
2023/08/02 07:24:02;;;;;;;5.30;4.80;;;;;;;25.98;59.64;98502.45;107477;1254;66842;-40
2023/08/02 07:26:30;;;;;;;5.20;4.70;;;;;;;26.09;59.18;98509.20;107584;1254;72707;-40
2023/08/02 07:28:57;;;;;;;7.00;5.30;;;;;;;26.20;58.83;98510.77;107488;1259;60352;-40
2023/08/02 07:31:25;;;;;;;5.80;5.30;;;;;;;26.35;58.75;98508.01;107484;1254;60324;-40
2023/08/02 07:33:52;;;;;;;6.30;5.20;;;;;;;26.51;57.72;98506.37;107453;1254;74174;-40
2023/08/02 07:36:20;;;;;;;6.00;5.10;;;;;;;26.65;57.66;98506.44;107484;1252;67596;-40
2023/08/02 07:38:49;;;;;;;6.10;4.90;;;;;;;26.81;57.13;98504.45;107488;1254;72669;-40
2023/08/02 07:41:16;;;;;;;6.30;5.70;;;;;;;26.98;56.28;98505.04;107461;1253;60226;-40
2023/08/02 07:43:46;;;;;;;5.30;4.80;;;;;;;27.12;55.61;98505.32;107465;1253;60534;-40
2023/08/02 07:46:23;;;;;;;5.30;4.70;;;;;;;27.27;55.18;98502.66;107499;1253;72626;-40
2023/08/02 07:48:51;;;;;;;4.90;4.50;;;;;;;27.41;55.32;98498.63;107451;1254;67596;-40
2023/08/02 07:51:20;;;;;;;6.70;4.10;;;;;;;27.54;54.15;98499.26;107462;1253;72645;-40
2023/08/02 07:53:52;;;;;;;6.20;4.60;;;;;;;27.69;53.57;98499.62;107442;1254;60566;-39
2023/08/02 07:56:20;;;;;;;4.60;4.10;;;;;;;27.79;53.48;98500.39;107299;1253;61563;-38
2023/08/02 07:58:48;;;;;;;4.60;4.20;;;;;;;27.86;52.20;98498.92;107610;1254;73840;-39
2023/08/02 08:01:16;;;;;;;4.40;4.00;;;;;;;27.79;50.72;98497.61;107533;1254;67895;-39
2023/08/02 08:03:44;;;;;;;6.60;3.90;;;;;;;27.69;51.26;98494.26;107513;1257;73122;-40
2023/08/02 08:06:13;;;;;;;4.20;3.80;;;;;;;27.64;52.01;98488.05;107424;1254;60457;-40
2023/08/02 08:08:42;;;;;;;5.20;3.80;;;;;;;27.66;51.38;98482.70;107227;1253;60738;-40
2023/08/02 08:11:10;;;;;;;4.80;4.40;;;;;;;27.70;51.63;98486.06;107376;1254;72447;-40
2023/08/02 08:13:37;;;;;;;4.70;4.20;;;;;;;27.72;51.89;98486.94;107393;1254;67932;-40
2023/08/02 08:16:05;;;;;;;4.20;3.80;;;;;;;27.72;51.83;98487.96;107404;1257;72881;-40
2023/08/02 08:18:33;;;;;;;4.50;4.10;;;;;;;27.69;51.45;98487.31;107458;1254;60291;-40
2023/08/02 08:21:04;;;;;;;4.70;4.30;;;;;;;27.64;51.45;98489.00;107443;1253;59678;-40
2023/08/02 08:23:33;;;;;;;4.30;3.90;;;;;;;27.56;50.94;98484.70;107393;1253;73864;-39
2023/08/02 08:26:00;;;;;;;5.90;4.40;;;;;;;27.45;51.61;98488.59;107570;1254;67593;-40
2023/08/02 08:28:28;;;;;;;4.50;4.20;;;;;;;27.39;52.46;98487.69;107450;1254;71463;-40
2023/08/02 08:31:00;;;;;;;7.30;4.30;;;;;;;27.37;52.10;98482.40;107291;1253;60299;-40
2023/08/02 08:33:29;;;;;;;4.50;4.10;;;;;;;27.38;52.31;98480.89;107346;1254;60428;-39
2023/08/02 08:35:57;;;;;;;8.00;5.20;;;;;;;27.43;52.70;98485.34;107659;1252;72508;-39
2023/08/02 08:38:24;;;;;;;5.10;4.60;;;;;;;27.48;52.51;98480.33;107535;1253;67612;-39
2023/08/02 08:40:53;;;;;;;5.20;4.60;;;;;;;27.49;51.46;98478.11;107452;1252;72664;-40
2023/08/02 08:43:25;;;;;;;4.50;4.10;;;;;;;27.44;51.83;98479.58;107488;1253;60534;-40
2023/08/02 08:45:52;;;;;;;5.20;4.50;;;;;;;27.43;52.30;98480.07;107570;1253;60418;-39
2023/08/02 08:48:21;;;;;;;5.20;4.40;;;;;;;27.44;51.76;98479.73;107519;1254;73875;-40
2023/08/02 08:50:48;;;;;;;5.00;4.50;;;;;;;27.48;51.91;98479.41;107305;1254;67736;-39
2023/08/02 08:53:22;;;;;;;4.60;4.20;;;;;;;27.61;51.88;98477.23;107472;1253;72682;-40
2023/08/02 08:55:50;;;;;;;4.60;3.90;;;;;;;27.78;51.21;98480.53;107501;1254;60402;-39
2023/08/02 08:58:17;;;;;;;5.50;4.10;;;;;;;27.96;51.27;98479.78;107531;1253;60422;-40
2023/08/02 09:00:46;;;;;;;4.20;3.80;;;;;;;28.12;49.74;98475.36;107384;1253;74310;-39
2023/08/02 09:03:14;;;;;;;4.80;4.00;;;;;;;28.24;49.33;98469.55;107442;1253;66412;-39
2023/08/02 09:05:41;;;;;;;4.40;3.90;;;;;;;28.36;49.11;98465.98;107441;1254;72670;-39
2023/08/02 09:08:09;;;;;;;4.00;3.60;;;;;;;28.53;49.16;98459.71;107455;1254;60492;-39
2023/08/02 09:10:38;;;;;;;4.20;3.80;;;;;;;28.70;47.68;98459.27;107495;1254;60482;-39
2023/08/02 09:13:06;;;;;;;4.60;3.90;;;;;;;28.73;47.01;98458.92;107462;1254;73866;-39
2023/08/02 09:15:33;;;;;;;4.80;3.80;;;;;;;28.73;47.34;98457.35;107499;1254;67911;-40
2023/08/02 09:18:02;;;;;;;4.00;3.50;;;;;;;28.77;48.18;98458.07;107495;1254;72700;-39
2023/08/02 09:20:29;;;;;;;4.10;3.50;;;;;;;28.89;48.16;98458.45;107496;1257;60189;-40
2023/08/02 09:22:57;;;;;;;3.80;3.30;;;;;;;29.01;47.13;98456.33;107499;1253;60418;-39
2023/08/02 09:25:26;;;;;;;4.80;3.40;;;;;;;29.05;46.57;98448.36;107490;1254;73833;-39
2023/08/02 09:27:55;;;;;;;3.90;3.50;;;;;;;29.06;46.48;98448.72;107536;1254;68195;-39
2023/08/02 09:30:32;;;;;;;8.00;3.40;;;;;;;29.12;47.50;98445.63;107555;1254;71394;-40
2023/08/02 09:33:05;;;;;;;3.50;3.20;;;;;;;29.26;47.44;98444.30;107545;1253;60286;-40
2023/08/02 09:35:47;;;;;;;5.90;3.60;;;;;;;29.38;46.76;98436.09;107569;1254;60364;-39
2023/08/02 09:38:16;;;;;;;3.40;3.10;;;;;;;29.52;45.96;98429.17;107476;1253;73936;-40
2023/08/02 09:40:47;;;;;;;4.30;3.40;;;;;;;29.61;46.39;98418.94;107462;1257;67664;-40
2023/08/02 09:43:35;;;;;;;3.80;3.40;;;;;;;29.69;46.46;98413.59;107522;1253;72686;-40
2023/08/02 09:46:02;;;;;;;3.70;3.30;;;;;;;29.68;45.92;98418.46;107634;1254;60409;-40
2023/08/02 09:48:36;;;;;;;4.00;3.40;;;;;;;29.67;44.96;98417.71;107470;1253;60369;-40
2023/08/02 09:51:04;;;;;;;4.50;3.10;;;;;;;29.61;44.10;98415.49;107493;1257;72222;-40
2023/08/02 09:53:32;;;;;;;3.40;3.10;;;;;;;29.50;44.58;98413.19;107531;1257;67575;-40
2023/08/02 09:56:00;;;;;;;3.40;3.10;;;;;;;29.37;45.37;98409.96;107554;1253;72729;-40
2023/08/02 09:58:30;;;;;;;3.60;3.20;;;;;;;29.33;45.82;98408.08;107380;1254;187616;-40
2023/08/02 10:02:17;;;;;;;3.30;2.80;;;;;;;29.46;45.81;98405.21;104399;1289;599627;-39
2023/08/02 10:04:45;;;;;;;3.30;3.00;;;;;;;29.50;44.47;98395.56;106677;1265;59124;-40
2023/08/02 10:07:13;;;;;;;4.50;3.10;;;;;;;29.52;45.57;98388.75;106673;1263;60056;-40
2023/08/02 10:09:41;;;;;;;3.80;3.20;;;;;;;29.67;46.02;98389.63;106540;1265;71432;-40
2023/08/02 10:12:10;;;;;;;3.50;2.80;;;;;;;29.88;45.22;98390.11;106543;1265;66286;-40
2023/08/02 10:14:37;;;;;;;3.10;2.80;;;;;;;30.07;45.05;98385.33;106619;1267;71360;-40
2023/08/02 10:17:05;;;;;;;3.10;2.80;;;;;;;30.27;44.39;98379.02;106600;1263;180113;-40
2023/08/02 10:19:33;;;;;;;3.20;2.90;;;;;;;30.42;43.40;98384.27;106767;1263;60069;-40
2023/08/02 10:22:04;;;;;;;4.00;3.00;;;;;;;30.44;43.81;98384.86;106823;1263;72385;-40
2023/08/02 10:24:32;;;;;;;4.50;2.90;;;;;;;30.47;43.02;98379.74;106723;1263;67657;-41
2023/08/02 10:27:04;;;;;;;5.40;2.80;;;;;;;30.45;42.59;98377.59;106744;1262;72663;-40
2023/08/02 10:29:33;;;;;;;3.60;2.70;;;;;;;30.39;42.62;98375.70;106766;1263;60246;-41
2023/08/02 10:32:13;;;;;;;3.20;2.90;;;;;;;30.31;42.89;98371.23;106767;1267;59169;-40
2023/08/02 10:34:42;;;;;;;3.30;2.90;;;;;;;30.25;42.84;98365.25;106878;1261;73090;-40
2023/08/02 10:37:10;;;;;;;5.00;3.00;;;;;;;30.17;43.24;98360.25;106831;1262;67881;-40
2023/08/02 10:39:47;;;;;;;2.70;2.50;;;;;;;30.17;44.13;98353.05;106759;1262;71747;-40
2023/08/02 10:42:16;;;;;;;3.10;2.80;;;;;;;30.35;44.65;98352.44;106753;1263;59617;-40
2023/08/02 10:44:56;;;;;;;3.90;2.60;;;;;;;30.54;43.02;98343.69;106759;1263;60010;-40
2023/08/02 10:47:35;;;;;;;2.80;2.60;;;;;;;30.62;43.22;98344.79;106766;1261;73086;-42
2023/08/02 10:50:04;;;;;;;5.00;2.50;;;;;;;30.69;42.75;98338.39;106809;1263;67641;-42
2023/08/02 10:52:36;;;;;;;3.20;2.50;;;;;;;30.82;42.90;98329.68;106844;1264;71548;-41
2023/08/02 10:55:10;;;;;;;2.90;2.60;;;;;;;31.00;42.48;98326.52;106745;1263;60086;-42
2023/08/02 10:57:54;;;;;;;2.60;2.40;;;;;;;31.24;42.00;98321.05;106763;1263;59394;-41
2023/08/02 11:00:24;;;;;;;3.60;2.60;;;;;;;31.54;42.10;98316.91;106635;1263;71094;-41
2023/08/02 11:02:53;;;;;;;3.30;2.40;;;;;;;31.87;41.79;98307.02;106685;1263;67716;-41
2023/08/02 11:05:43;;;;;;;2.60;2.40;;;;;;;32.02;40.04;98301.63;106801;1267;72645;-40
2023/08/02 11:08:11;;;;;;;2.50;2.20;;;;;;;32.18;40.30;98306.88;106641;1266;60568;-41
2023/08/02 11:10:55;;;;;;;2.80;2.50;;;;;;;32.35;39.57;98302.23;106684;1263;59539;-40
2023/08/02 11:13:23;;;;;;;5.30;2.30;;;;;;;32.45;38.31;98301.33;106880;1262;73442;-40
2023/08/02 11:16:04;;;;;;;3.40;2.20;;;;;;;32.36;38.71;98302.79;106663;1263;65783;-40
2023/08/02 11:18:33;;;;;;;3.30;2.60;;;;;;;32.22;37.79;98299.92;106741;1262;72808;-40
2023/08/02 11:21:12;;;;;;;3.40;2.60;;;;;;;32.05;38.00;98300.31;106691;1264;60073;-40
2023/08/02 11:23:39;;;;;;;5.20;2.40;;;;;;;31.81;38.80;98302.42;106772;1263;60044;-40
2023/08/02 11:26:27;;;;;;;3.50;2.50;;;;;;;31.58;39.56;98301.99;106782;1263;71852;-41
2023/08/02 11:29:14;;;;;;;2.90;2.30;;;;;;;31.59;39.38;98302.50;106745;1263;66354;-41
2023/08/02 11:31:42;;;;;;;7.60;2.60;;;;;;;31.65;39.55;98300.39;106751;1263;72660;-41
2023/08/02 11:34:18;;;;;;;7.20;2.60;;;;;;;31.73;39.72;98299.77;106671;1263;59510;-40
2023/08/02 11:36:48;;;;;;;2.90;2.20;;;;;;;31.77;40.43;98296.42;106776;1264;60039;-41